createdAt,value
2023-01-19T00:00:10.815Z,97580.81
2023-01-19T00:02:39.783Z,97583.00
2023-01-19T00:04:42.615Z,97580.89
2023-01-19T00:06:45.290Z,97581.64
2023-01-19T00:08:50.238Z,97582.20
2023-01-19T00:10:52.810Z,97580.35
2023-01-19T00:12:55.687Z,97581.88
2023-01-19T00:14:58.208Z,97584.58
2023-01-19T00:17:01.853Z,97587.23
2023-01-19T00:19:04.767Z,97587.58
2023-01-19T00:21:07.329Z,97590.00
2023-01-19T00:23:10.239Z,97589.22
2023-01-19T00:25:13.895Z,97587.65
2023-01-19T00:27:17.075Z,97588.46
2023-01-19T00:29:20.817Z,97588.62
2023-01-19T00:31:23.437Z,97583.05
2023-01-19T00:33:35.274Z,97577.13
2023-01-19T00:35:38.246Z,97581.02
2023-01-19T00:37:40.977Z,97583.20
2023-01-19T00:39:44.183Z,97584.98
2023-01-19T00:42:07.350Z,97587.29
2023-01-19T00:44:10.752Z,97594.63
2023-01-19T00:46:13.329Z,97594.11
2023-01-19T00:48:15.980Z,97598.76
2023-01-19T00:50:18.761Z,97599.45
2023-01-19T00:52:21.417Z,97602.84
2023-01-19T00:54:24.445Z,97601.66
2023-01-19T00:56:27.663Z,97602.73
2023-01-19T00:58:30.345Z,97603.29
2023-01-19T01:00:33.217Z,97604.09
2023-01-19T01:02:36.905Z,97605.10
2023-01-19T01:04:39.768Z,97602.56
2023-01-19T01:06:42.886Z,97605.63
2023-01-19T01:08:45.534Z,97606.13
2023-01-19T01:10:48.140Z,97608.86
2023-01-19T01:12:59.380Z,97612.45
2023-01-19T01:15:23.391Z,97614.33
2023-01-19T01:17:26.121Z,97618.63
2023-01-19T01:19:28.725Z,97614.63
2023-01-19T01:21:31.274Z,97617.47
2023-01-19T01:23:35.264Z,97616.34
2023-01-19T01:25:38.656Z,97622.19
2023-01-19T01:27:42.437Z,97622.52
2023-01-19T01:29:48.626Z,97625.14
2023-01-19T01:31:51.302Z,97629.52
2023-01-19T01:33:53.981Z,97631.14
2023-01-19T01:35:56.671Z,97631.20
2023-01-19T01:38:00.716Z,97632.39
2023-01-19T01:40:04.850Z,97632.56
2023-01-19T01:42:19.932Z,97633.11
2023-01-19T01:44:55.501Z,97638.58
2023-01-19T01:46:58.674Z,97637.17
2023-01-19T01:49:07.560Z,97637.48
2023-01-19T01:51:37.510Z,97639.73
2023-01-19T01:53:41.750Z,97637.23
2023-01-19T01:55:49.042Z,97641.63
2023-01-19T01:57:59.313Z,97642.23
2023-01-19T02:00:04.722Z,97645.64
2023-01-19T02:02:34.904Z,97638.80
2023-01-19T02:04:40.325Z,97644.58
2023-01-19T02:07:01.802Z,97646.27
2023-01-19T02:09:29.185Z,97640.66
2023-01-19T02:11:51.530Z,97639.45
2023-01-19T02:13:54.232Z,97637.29
2023-01-19T02:16:04.685Z,97633.02
2023-01-19T02:18:07.200Z,97632.56
2023-01-19T02:20:10.805Z,97630.88
2023-01-19T02:22:24.710Z,97629.94
2023-01-19T02:24:28.277Z,97633.36
2023-01-19T02:26:36.761Z,97636.81
2023-01-19T02:28:45.332Z,97638.27
2023-01-19T02:30:48.521Z,97638.54
2023-01-19T02:32:52.328Z,97639.30
2023-01-19T02:34:55.817Z,97640.71
2023-01-19T02:37:06.515Z,97638.12
2023-01-19T02:39:11.112Z,97640.95
2023-01-19T02:41:22.968Z,97647.70
2023-01-19T02:43:27.949Z,97649.04
2023-01-19T02:45:31.131Z,97652.00
2023-01-19T02:47:45.023Z,97654.06
2023-01-19T02:49:56.681Z,97659.46
2023-01-19T02:52:01.206Z,97663.05
2023-01-19T02:54:27.629Z,97664.92
2023-01-19T02:56:55.712Z,97664.34
2023-01-19T02:59:16.083Z,97661.56
2023-01-19T03:01:23.047Z,97661.20
2023-01-19T03:03:25.645Z,97663.91
2023-01-19T03:05:46.132Z,97665.67
2023-01-19T03:08:10.712Z,97662.01
2023-01-19T03:10:16.093Z,97660.53
2023-01-19T03:12:30.380Z,97658.18
2023-01-19T03:14:37.380Z,97662.40
2023-01-19T03:16:48.527Z,97661.66
2023-01-19T03:18:55.596Z,97664.98
2023-01-19T03:21:02.718Z,97661.40
2023-01-19T03:23:10.437Z,97659.31
2023-01-19T03:25:15.180Z,97663.91
2023-01-19T03:27:26.382Z,97663.95
2023-01-19T03:29:36.357Z,97660.34
2023-01-19T03:31:43.308Z,97662.10
2023-01-19T03:33:51.610Z,97661.23
2023-01-19T03:36:03.775Z,97663.48
2023-01-19T03:38:13.688Z,97663.89
2023-01-19T03:40:17.176Z,97661.35
2023-01-19T03:42:20.619Z,97658.74
2023-01-19T03:44:26.105Z,97659.34
2023-01-19T03:46:29.612Z,97662.80
2023-01-19T03:48:33.555Z,97666.58
2023-01-19T03:50:36.831Z,97668.51
2023-01-19T03:52:39.682Z,97671.97
2023-01-19T03:54:43.033Z,97669.71
2023-01-19T03:56:45.540Z,97668.60
2023-01-19T03:58:48.211Z,97668.90
2023-01-19T04:00:51.146Z,97666.80
2023-01-19T04:02:55.650Z,97664.66
2023-01-19T04:04:58.259Z,97664.52
2023-01-19T04:07:01.841Z,97665.80
2023-01-19T04:09:04.523Z,97663.59
2023-01-19T04:11:08.919Z,97660.35
2023-01-19T04:13:11.764Z,97660.65
2023-01-19T04:15:17.085Z,97664.40
2023-01-19T04:17:20.785Z,97670.40
2023-01-19T04:19:24.216Z,97672.13
2023-01-19T04:21:28.745Z,97673.39
2023-01-19T04:23:31.833Z,97678.65
2023-01-19T04:25:34.759Z,97679.80
2023-01-19T04:27:39.307Z,97679.23
2023-01-19T04:29:42.506Z,97679.55
2023-01-19T04:31:46.653Z,97681.95
2023-01-19T04:33:50.247Z,97681.54
2023-01-19T04:35:57.174Z,97688.49
2023-01-19T04:38:00.491Z,97686.77
2023-01-19T04:40:03.686Z,97685.06
2023-01-19T04:42:07.001Z,97688.27
2023-01-19T04:44:10.031Z,97689.13
2023-01-19T04:46:12.931Z,97689.62
2023-01-19T04:48:19.354Z,97695.85
2023-01-19T04:50:22.502Z,97696.86
2023-01-19T04:52:25.792Z,97696.02
2023-01-19T04:54:29.611Z,97695.65
2023-01-19T04:56:34.306Z,97702.46
2023-01-19T04:58:36.992Z,97703.41
2023-01-19T05:00:42.928Z,97700.48
2023-01-19T05:02:45.831Z,97702.45
2023-01-19T05:04:48.721Z,97705.18
2023-01-19T05:07:01.489Z,97705.59
2023-01-19T05:09:05.541Z,97705.33
2023-01-19T05:11:08.092Z,97703.22
2023-01-19T05:13:10.721Z,97703.14
2023-01-19T05:15:13.411Z,97701.48
2023-01-19T05:17:16.001Z,97701.05
2023-01-19T05:19:18.615Z,97704.84
2023-01-19T05:21:23.157Z,97705.19
2023-01-19T05:23:27.856Z,97709.13
2023-01-19T05:25:30.532Z,97711.45
2023-01-19T05:27:34.729Z,97710.80
2023-01-19T05:29:38.195Z,97712.64
2023-01-19T05:31:40.828Z,97715.67
2023-01-19T05:33:56.634Z,97710.68
2023-01-19T05:36:02.527Z,97713.56
2023-01-19T05:38:05.831Z,97713.80
2023-01-19T05:40:09.523Z,97710.10
2023-01-19T05:42:12.287Z,97711.06
2023-01-19T05:44:15.345Z,97712.55
2023-01-19T05:46:17.860Z,97707.79
2023-01-19T05:48:20.457Z,97709.45
2023-01-19T05:50:23.581Z,97716.86
2023-01-19T05:52:26.711Z,97715.88
2023-01-19T05:54:29.338Z,97716.02
2023-01-19T05:56:33.054Z,97716.53
2023-01-19T05:58:39.985Z,97715.85
2023-01-19T06:00:43.431Z,97721.55
2023-01-19T06:02:49.597Z,97721.56
2023-01-19T06:04:56.203Z,97721.72
2023-01-19T06:06:58.692Z,97716.71
2023-01-19T06:09:01.908Z,97716.91
2023-01-19T06:11:07.635Z,97719.55
2023-01-19T06:13:12.367Z,97727.42
2023-01-19T06:15:15.432Z,97727.00
2023-01-19T06:17:18.349Z,97725.14
2023-01-19T06:19:21.231Z,97728.54
2023-01-19T06:21:24.056Z,97735.06
2023-01-19T06:23:54.746Z,97736.04
2023-01-19T06:25:58.074Z,97731.58
2023-01-19T06:28:06.955Z,97734.27
2023-01-19T06:30:11.215Z,97736.49
2023-01-19T06:32:13.936Z,97736.57
2023-01-19T06:34:16.787Z,97734.94
2023-01-19T06:36:19.475Z,97739.36
2023-01-19T06:38:22.508Z,97735.98
2023-01-19T06:40:31.381Z,97736.58
2023-01-19T06:42:34.444Z,97737.80
2023-01-19T06:44:52.927Z,97737.93
2023-01-19T06:47:15.723Z,97740.21
2023-01-19T06:49:22.105Z,97743.03
2023-01-19T06:51:25.497Z,97744.52
2023-01-19T06:53:30.226Z,97746.59
2023-01-19T06:55:35.890Z,97748.59
2023-01-19T06:57:40.239Z,97749.56
2023-01-19T06:59:42.891Z,97751.49
2023-01-19T07:01:45.611Z,97747.56
2023-01-19T07:03:48.529Z,97748.73
2023-01-19T07:06:06.594Z,97751.05
2023-01-19T07:08:09.589Z,97748.51
2023-01-19T07:10:15.603Z,97751.88
2023-01-19T07:12:18.597Z,97749.23
2023-01-19T07:14:21.230Z,97754.63
2023-01-19T07:16:24.224Z,97752.94
2023-01-19T07:18:27.168Z,97754.39
2023-01-19T07:20:29.802Z,97757.81
2023-01-19T07:22:46.950Z,97758.04
2023-01-19T07:24:49.495Z,97755.60
2023-01-19T07:26:54.402Z,97759.84
2023-01-19T07:28:57.358Z,97761.67
2023-01-19T07:31:00.327Z,97760.92
2023-01-19T07:33:04.380Z,97762.17
2023-01-19T07:35:07.515Z,97763.91
2023-01-19T07:37:12.604Z,97770.98
2023-01-19T07:39:18.134Z,97773.40
2023-01-19T07:41:21.273Z,97779.62
2023-01-19T07:43:23.912Z,97775.33
2023-01-19T07:45:28.010Z,97776.06
2023-01-19T07:47:31.107Z,97774.30
2023-01-19T07:49:35.507Z,97771.55
2023-01-19T08:37:04.164Z,97806.61
2023-01-19T08:39:09.164Z,97810.71
2023-01-19T08:41:12.809Z,97809.79
2023-01-19T08:43:17.359Z,97815.05
2023-01-19T08:45:20.326Z,97813.72
2023-01-19T08:47:23.065Z,97812.30
2023-01-19T08:49:25.790Z,97819.28
2023-01-19T08:51:28.979Z,97814.95
2023-01-19T08:53:31.931Z,97819.87
2023-01-19T08:55:36.847Z,97816.77
2023-01-19T08:57:40.366Z,97819.75
2023-01-19T08:59:43.169Z,97816.77
2023-01-19T09:01:46.172Z,97818.31
2023-01-19T09:03:49.490Z,97818.02
2023-01-19T09:05:52.111Z,97821.45
2023-01-19T09:07:54.965Z,97819.14
2023-01-19T09:09:57.687Z,97821.44
2023-01-19T09:12:00.499Z,97820.89
2023-01-19T09:14:03.777Z,97822.17
2023-01-19T09:16:08.615Z,97826.86
2023-01-19T09:18:15.185Z,97828.21
2023-01-19T09:20:18.270Z,97827.61
2023-01-19T09:22:20.932Z,97829.88
2023-01-19T09:24:23.926Z,97823.85
2023-01-19T09:26:28.302Z,97828.08
2023-01-19T09:28:31.511Z,97828.80
2023-01-19T09:30:36.143Z,97826.26
2023-01-19T09:32:39.009Z,97826.60
2023-01-19T09:34:41.684Z,97829.36
2023-01-19T09:36:46.768Z,97830.82
2023-01-19T09:38:49.740Z,97827.89
2023-01-19T09:40:55.466Z,97829.55
2023-01-19T09:43:33.306Z,97822.02
2023-01-19T09:46:07.067Z,97822.66
2023-01-19T09:48:26.673Z,97817.30
2023-01-19T09:50:36.675Z,97816.64
2023-01-19T09:52:44.250Z,97818.64
2023-01-19T09:54:53.344Z,97815.59
2023-01-19T09:56:56.162Z,97816.35
2023-01-19T09:58:59.993Z,97822.48
2023-01-19T10:01:15.783Z,97820.88
2023-01-19T10:03:20.881Z,97822.05
2023-01-19T10:05:44.740Z,97818.05
2023-01-19T10:08:03.891Z,97818.85
2023-01-19T10:10:27.690Z,97819.70
2023-01-19T10:12:59.194Z,97821.46
2023-01-19T10:15:30.612Z,97820.23
2023-01-19T10:17:50.334Z,97822.55
2023-01-19T10:19:57.565Z,97826.98
2023-01-19T10:22:04.951Z,97823.41
2023-01-19T10:24:21.327Z,97824.27
2023-01-19T10:26:34.075Z,97823.10
2023-01-19T10:28:38.617Z,97824.45
2023-01-19T10:30:44.159Z,97825.10
2023-01-19T10:32:47.425Z,97824.48
2023-01-19T10:34:51.028Z,97825.64
2023-01-19T10:37:04.315Z,97823.34
2023-01-19T10:39:08.512Z,97823.48
2023-01-19T10:41:28.640Z,97825.31
2023-01-19T10:43:34.952Z,97824.55
2023-01-19T10:45:38.151Z,97825.97
2023-01-19T10:47:42.165Z,97823.60
2023-01-19T10:49:45.025Z,97827.42
2023-01-19T10:51:49.133Z,97824.23
2023-01-19T10:54:03.161Z,97821.52
2023-01-19T10:56:27.260Z,97822.84
2023-01-19T10:58:31.493Z,97821.17
2023-01-19T11:00:42.683Z,97818.52
2023-01-19T11:02:50.364Z,97823.00
2023-01-19T11:04:56.887Z,97821.34
2023-01-19T11:07:34.081Z,97819.70
2023-01-19T11:09:37.063Z,97821.36
2023-01-19T11:11:45.805Z,97818.65
2023-01-19T11:14:07.317Z,97818.04
2023-01-19T11:16:19.030Z,97817.35
2023-01-19T11:18:28.975Z,97815.20
2023-01-19T11:20:51.059Z,97811.16
2023-01-19T11:23:25.006Z,97809.73
2023-01-19T11:25:31.492Z,97808.33
2023-01-19T11:27:37.730Z,97808.50
2023-01-19T11:29:40.438Z,97806.09
2023-01-19T11:31:44.315Z,97805.03
2023-01-19T11:33:47.670Z,97806.02
2023-01-19T11:36:03.017Z,97804.30
2023-01-19T11:38:12.410Z,97800.84
2023-01-19T11:40:15.913Z,97797.23
2023-01-19T11:42:20.259Z,97795.04
2023-01-19T11:44:30.065Z,97796.39
2023-01-19T11:46:34.801Z,97793.44
2023-01-19T11:48:50.145Z,97790.23
2023-01-19T11:50:55.262Z,97789.84
2023-01-19T11:53:14.558Z,97790.73
2023-01-19T11:55:22.101Z,97791.66
2023-01-19T11:57:25.877Z,97789.17
2023-01-19T11:59:28.956Z,97787.42
2023-01-19T12:01:35.979Z,97787.86
2023-01-19T12:03:47.846Z,97788.81
2023-01-19T12:05:57.107Z,97790.36
2023-01-19T12:08:06.721Z,97794.29
2023-01-19T12:10:28.889Z,97793.92
2023-01-19T12:12:35.517Z,97797.38
2023-01-19T12:14:41.125Z,97795.78
2023-01-19T12:16:44.787Z,97797.41
2023-01-19T12:19:17.048Z,97795.02
2023-01-19T12:21:20.216Z,97794.68
2023-01-19T12:23:32.529Z,97791.61
2023-01-19T12:25:54.938Z,97791.39
2023-01-19T12:27:59.270Z,97793.59
2023-01-19T12:30:03.030Z,97790.02
2023-01-19T12:32:14.676Z,97794.59
2023-01-19T12:34:27.490Z,97793.18
2023-01-19T12:36:30.053Z,97792.27
2023-01-19T12:38:35.022Z,97791.08
2023-01-19T12:40:37.659Z,97787.69
2023-01-19T12:42:46.771Z,97786.53
2023-01-19T12:44:55.209Z,97784.84
2023-01-19T12:47:15.960Z,97783.66
2023-01-19T12:49:40.211Z,97783.86
2023-01-19T12:51:43.066Z,97790.86
2023-01-19T12:53:53.188Z,97790.24
2023-01-19T12:56:01.269Z,97790.24
2023-01-19T12:58:14.738Z,97786.98
2023-01-19T13:00:23.015Z,97787.82
2023-01-19T13:02:43.417Z,97788.31
2023-01-19T13:05:25.046Z,97783.96
2023-01-19T13:07:27.651Z,97779.79
2023-01-19T13:09:31.584Z,97773.80
2023-01-19T13:11:34.839Z,97773.10
2023-01-19T13:13:38.743Z,97769.33
2023-01-19T13:15:41.741Z,97771.23
2023-01-19T13:17:53.640Z,97771.20
2023-01-19T13:20:05.203Z,97767.05
2023-01-19T13:22:45.371Z,97767.95
2023-01-19T13:25:21.801Z,97767.73
2023-01-19T13:27:28.597Z,97768.80
2023-01-19T13:29:35.257Z,97765.20
2023-01-19T13:31:41.312Z,97770.32
2023-01-19T13:33:52.060Z,97770.20
2023-01-19T13:35:58.593Z,97770.85
2023-01-19T13:38:01.448Z,97772.79
2023-01-19T13:40:04.464Z,97772.13
2023-01-19T13:42:15.691Z,97772.95
2023-01-19T13:44:23.861Z,97774.43
2023-01-19T13:46:29.232Z,97776.45
2023-01-19T13:48:32.594Z,97775.45
2023-01-19T13:50:39.253Z,97775.36
2023-01-19T13:52:43.589Z,97776.05
2023-01-19T13:54:53.196Z,97780.17
2023-01-19T13:56:56.140Z,97778.11
2023-01-19T13:59:09.725Z,97780.84
2023-01-19T14:01:23.385Z,97783.55
2023-01-19T14:03:26.823Z,97783.44
2023-01-19T14:05:29.513Z,97783.95
2023-01-19T14:07:32.084Z,97782.41
2023-01-19T14:09:34.698Z,97783.04
2023-01-19T14:11:38.745Z,97783.06
2023-01-19T14:13:44.836Z,97784.95
2023-01-19T14:15:50.305Z,97788.08
2023-01-19T14:18:21.744Z,97791.13
2023-01-19T14:20:29.878Z,97786.80
2023-01-19T14:22:44.379Z,97788.23
2023-01-19T14:24:47.021Z,97785.55
2023-01-19T14:26:52.796Z,97786.84
2023-01-19T14:28:55.473Z,97782.52
2023-01-19T14:31:03.915Z,97783.46
2023-01-19T14:33:32.680Z,97785.75
2023-01-19T14:35:35.296Z,97789.31
2023-01-19T14:37:47.269Z,97790.55
2023-01-19T14:39:57.583Z,97786.41
2023-01-19T14:42:04.027Z,97786.66
2023-01-19T14:44:11.566Z,97783.80
2023-01-19T14:46:19.196Z,97788.39
2023-01-19T14:48:22.637Z,97786.23
2023-01-19T14:50:38.042Z,97787.69
2023-01-19T14:52:42.179Z,97788.65
2023-01-19T14:54:47.006Z,97787.23
2023-01-19T14:56:53.728Z,97789.31
2023-01-19T14:58:58.254Z,97793.86
2023-01-19T15:01:01.692Z,97796.13
2023-01-19T15:03:06.169Z,97798.78
2023-01-19T15:05:09.874Z,97796.05
2023-01-19T15:07:18.164Z,97799.08
2023-01-19T15:09:20.886Z,97802.06
2023-01-19T15:11:35.870Z,97801.64
2023-01-19T15:13:39.265Z,97803.89
2023-01-19T15:15:41.956Z,97808.39
2023-01-19T15:17:44.859Z,97805.79
2023-01-19T15:19:47.647Z,97807.18
2023-01-19T15:21:50.212Z,97809.02
2023-01-19T15:23:54.395Z,97808.98
2023-01-19T15:26:02.173Z,97811.10
2023-01-19T15:28:10.711Z,97810.64
2023-01-19T15:30:23.330Z,97812.27
2023-01-19T15:32:26.012Z,97812.36
2023-01-19T15:34:28.584Z,97808.97
2023-01-19T15:36:31.270Z,97810.56
2023-01-19T15:38:36.074Z,97811.57
2023-01-19T15:40:38.783Z,97813.86
2023-01-19T15:42:41.849Z,97810.27
2023-01-19T15:44:45.012Z,97814.77
2023-01-19T15:46:47.652Z,97811.33
2023-01-19T15:48:50.816Z,97817.34
2023-01-19T15:50:53.583Z,97816.40
2023-01-19T15:52:56.293Z,97819.10
2023-01-19T15:54:58.866Z,97818.23
2023-01-19T15:57:02.005Z,97824.73
2023-01-19T15:59:04.978Z,97823.50
2023-01-19T16:01:12.775Z,97826.66
2023-01-19T16:03:15.971Z,97825.41
2023-01-19T16:05:18.631Z,97823.73
2023-01-19T16:07:21.303Z,97824.94
2023-01-19T16:09:23.942Z,97826.28
2023-01-19T16:11:31.289Z,97823.80
2023-01-19T16:13:33.965Z,97826.41
2023-01-19T16:15:42.702Z,97828.85
2023-01-19T16:17:45.691Z,97832.24
2023-01-19T16:19:49.546Z,97832.23
2023-01-19T16:21:52.327Z,97831.04
2023-01-19T16:23:55.295Z,97832.84
2023-01-19T16:26:09.571Z,97834.91
2023-01-19T16:28:12.471Z,97833.02
2023-01-19T16:30:16.427Z,97835.66
2023-01-19T16:32:19.312Z,97839.46
2023-01-19T16:34:24.128Z,97841.23
2023-01-19T16:36:32.641Z,97845.76
2023-01-19T16:38:35.204Z,97845.86
2023-01-19T16:40:37.985Z,97848.20
2023-01-19T16:42:40.822Z,97848.02
2023-01-19T16:44:43.365Z,97851.88
2023-01-19T16:46:49.329Z,97853.42
2023-01-19T16:48:52.490Z,97851.35
2023-01-19T16:51:00.291Z,97853.17
2023-01-19T16:53:03.361Z,97853.90
2023-01-19T16:55:09.611Z,97852.77
2023-01-19T16:57:12.944Z,97853.38
2023-01-19T16:59:20.015Z,97853.13
2023-01-19T17:01:24.523Z,97850.57
2023-01-19T17:03:28.635Z,97850.66
2023-01-19T17:05:33.692Z,97849.50
2023-01-19T17:07:37.087Z,97851.92
2023-01-19T17:09:39.945Z,97851.79
2023-01-19T17:11:42.723Z,97849.13
2023-01-19T17:13:47.613Z,97854.46
2023-01-19T17:15:50.672Z,97852.31
2023-01-19T17:17:54.980Z,97853.52
2023-01-19T17:20:00.106Z,97853.52
2023-01-19T17:22:02.790Z,97859.16
2023-01-19T17:24:06.963Z,97860.56
2023-01-19T17:26:10.754Z,97859.27
2023-01-19T17:28:13.868Z,97864.89
2023-01-19T17:30:20.517Z,97865.39
2023-01-19T17:32:24.720Z,97864.33
2023-01-19T17:34:27.862Z,97866.80
2023-01-19T17:36:34.485Z,97873.73
2023-01-19T17:38:37.888Z,97869.44
2023-01-19T17:40:41.742Z,97875.27
2023-01-19T17:42:44.577Z,97871.60
2023-01-19T17:44:48.351Z,97873.08
2023-01-19T17:46:51.183Z,97869.64
2023-01-19T17:48:56.527Z,97874.03
2023-01-19T17:51:03.831Z,97871.22
2023-01-19T17:53:07.587Z,97868.95
2023-01-19T17:55:11.799Z,97868.40
2023-01-19T17:57:15.400Z,97875.70
2023-01-19T17:59:19.742Z,97876.24
2023-01-19T18:01:27.203Z,97881.54
2023-01-19T18:03:31.782Z,97879.02
2023-01-19T18:05:38.155Z,97881.73
2023-01-19T18:07:42.347Z,97881.67
2023-01-19T18:09:46.863Z,97882.11
2023-01-19T18:11:51.395Z,97878.25
2023-01-19T18:13:55.685Z,97878.17
2023-01-19T18:16:10.248Z,97878.46
2023-01-19T18:18:15.164Z,97877.70
2023-01-19T18:20:19.554Z,97878.11
2023-01-19T18:22:26.085Z,97875.96
2023-01-19T18:24:31.057Z,97875.31
2023-01-19T18:26:35.489Z,97877.95
2023-01-19T18:28:39.796Z,97879.44
2023-01-19T18:30:43.946Z,97879.80
2023-01-19T18:32:48.183Z,97878.71
2023-01-19T18:34:54.375Z,97879.08
2023-01-19T18:36:58.209Z,97877.20
2023-01-19T18:39:02.772Z,97877.44
2023-01-19T18:41:09.074Z,97882.48
2023-01-19T18:43:16.179Z,97882.34
2023-01-19T18:45:23.557Z,97882.55
2023-01-19T18:47:27.778Z,97883.66
2023-01-19T18:49:32.232Z,97882.54
2023-01-19T18:51:37.955Z,97883.58
2023-01-19T18:53:42.404Z,97885.16
2023-01-19T18:55:57.682Z,97885.58
2023-01-19T18:58:02.051Z,97888.11
2023-01-19T19:00:08.551Z,97887.95
2023-01-19T19:02:12.191Z,97891.01
2023-01-19T19:04:18.085Z,97889.64
2023-01-19T19:06:23.859Z,97887.78
2023-01-19T19:08:29.129Z,97891.00
2023-01-19T19:10:33.919Z,97887.79
2023-01-19T19:12:38.209Z,97886.30
2023-01-19T19:14:42.957Z,97885.86
2023-01-19T19:16:46.606Z,97889.59
2023-01-19T19:18:51.542Z,97889.99
2023-01-19T19:20:56.408Z,97894.14
2023-01-19T19:23:00.547Z,97895.78
2023-01-19T19:25:08.229Z,97894.34
2023-01-19T19:27:14.509Z,97893.31
2023-01-19T19:29:19.578Z,97900.08
2023-01-19T19:31:26.321Z,97896.81
2023-01-19T19:33:31.183Z,97897.52
2023-01-19T19:35:36.075Z,97903.98
2023-01-19T19:37:40.726Z,97903.31
2023-01-19T19:39:45.163Z,97903.49
2023-01-19T19:41:49.389Z,97905.06
2023-01-19T19:43:57.278Z,97909.39
2023-01-19T19:46:11.753Z,97909.50
2023-01-19T19:48:18.582Z,97912.52
2023-01-19T19:50:23.164Z,97914.31
2023-01-19T19:52:30.376Z,97920.10
2023-01-19T19:54:35.351Z,97920.89
2023-01-19T19:56:42.078Z,97921.06
2023-01-19T19:58:46.277Z,97924.60
2023-01-19T20:00:50.723Z,97925.06
2023-01-19T20:02:54.226Z,97925.88
2023-01-19T20:05:00.047Z,97927.65
2023-01-19T20:07:02.723Z,97928.29
2023-01-19T20:09:10.709Z,97930.11
2023-01-19T20:11:20.949Z,97934.34
2023-01-19T20:13:27.338Z,97935.24
2023-01-19T20:15:32.569Z,97933.08
2023-01-19T20:17:37.476Z,97934.44
2023-01-19T20:19:41.749Z,97934.41
2023-01-19T20:21:46.573Z,97936.10
2023-01-19T20:23:53.263Z,97937.81
2023-01-19T20:25:58.427Z,97937.92
2023-01-19T20:28:02.185Z,97938.51
2023-01-19T20:30:08.325Z,97943.39
2023-01-19T20:32:12.548Z,97946.11
2023-01-19T20:34:19.635Z,97946.44
2023-01-19T20:36:24.535Z,97948.39
2023-01-19T20:38:27.206Z,97947.69
2023-01-19T20:40:30.897Z,97951.08
2023-01-19T20:42:34.258Z,97953.98
2023-01-19T20:44:38.767Z,97954.89
2023-01-19T20:46:42.721Z,97953.29
2023-01-19T20:48:50.896Z,97950.34
2023-01-19T20:51:05.073Z,97947.35
2023-01-19T20:53:08.478Z,97948.27
2023-01-19T20:55:14.096Z,97950.83
2023-01-19T20:57:18.023Z,97949.52
2023-01-19T20:59:22.048Z,97948.80
2023-01-19T21:01:25.765Z,97955.76
2023-01-19T21:03:29.708Z,97957.55
2023-01-19T21:05:33.208Z,97960.88
2023-01-19T21:07:35.833Z,97962.22
2023-01-19T21:09:39.760Z,97965.20
2023-01-19T21:11:42.491Z,97966.23
2023-01-19T21:13:45.020Z,97964.09
2023-01-19T21:15:47.712Z,97969.73
2023-01-19T21:17:51.141Z,97970.59
2023-01-19T21:19:53.857Z,97970.38
2023-01-19T21:21:56.436Z,97972.47
2023-01-19T21:24:03.444Z,97977.48
2023-01-19T21:26:06.982Z,97981.46
2023-01-19T21:28:09.674Z,97983.04
2023-01-19T21:30:12.384Z,97983.85
2023-01-19T21:32:15.294Z,97988.04
2023-01-19T21:34:18.197Z,97988.84
2023-01-19T21:36:22.484Z,97990.90
2023-01-19T21:38:26.982Z,97983.91
2023-01-19T21:40:30.007Z,97985.52
2023-01-19T21:42:32.645Z,97985.80
2023-01-19T21:44:35.411Z,97984.83
2023-01-19T21:46:38.604Z,97984.77
2023-01-19T21:48:42.670Z,97988.02
2023-01-19T21:50:45.407Z,97990.92
2023-01-19T21:52:48.909Z,97992.48
2023-01-19T21:54:51.522Z,97989.97
2023-01-19T21:56:54.208Z,97993.61
2023-01-19T21:58:57.420Z,97992.85
2023-01-19T22:01:03.181Z,97990.13
2023-01-19T22:03:06.476Z,97993.60
2023-01-19T22:05:09.429Z,97995.27
2023-01-19T22:07:11.971Z,97996.98
2023-01-19T22:09:14.638Z,97996.61
2023-01-19T22:11:19.161Z,98004.09
2023-01-19T22:13:21.816Z,98002.59
2023-01-19T22:15:24.504Z,98009.23
2023-01-19T22:17:26.981Z,98007.34
2023-01-19T22:19:29.590Z,98010.92
2023-01-19T22:21:37.550Z,98012.56
2023-01-19T22:23:40.777Z,98011.14
2023-01-19T22:25:43.345Z,98010.92
2023-01-19T22:27:46.075Z,98007.88
2023-01-19T22:29:48.754Z,98012.24
2023-01-19T22:31:52.393Z,98014.25
2023-01-19T22:33:55.456Z,98015.13
2023-01-19T22:36:21.067Z,98015.67
2023-01-19T22:38:23.615Z,98017.11
2023-01-19T22:40:26.389Z,98022.85
2023-01-19T22:42:28.957Z,98024.21
2023-01-19T22:44:31.482Z,98024.66
2023-01-19T22:46:36.590Z,98023.42
2023-01-19T22:48:40.527Z,98025.52
2023-01-19T22:50:43.069Z,98028.13
2023-01-19T22:52:45.635Z,98027.35
2023-01-19T22:54:48.167Z,98027.65
2023-01-19T22:56:50.722Z,98028.87
2023-01-19T22:58:54.032Z,98026.72
2023-01-19T23:00:56.805Z,98028.70
2023-01-19T23:02:59.422Z,98030.23
2023-01-19T23:05:01.972Z,98028.08
2023-01-19T23:07:04.600Z,98029.66
2023-01-19T23:09:11.508Z,98026.65
2023-01-19T23:11:25.805Z,98023.23
2023-01-19T23:13:28.412Z,98025.86
2023-01-19T23:15:32.855Z,98025.14
2023-01-19T23:17:35.380Z,98022.55
2023-01-19T23:19:38.000Z,98024.44
2023-01-19T23:21:41.209Z,98022.87
2023-01-19T23:23:44.697Z,98025.02
2023-01-19T23:25:47.203Z,98027.17
2023-01-19T23:27:49.912Z,98028.15
2023-01-19T23:29:52.839Z,98028.23
2023-01-19T23:31:56.281Z,98031.24
2023-01-19T23:34:01.838Z,98032.98
2023-01-19T23:36:04.979Z,98035.06
2023-01-19T23:38:07.648Z,98034.20
2023-01-19T23:40:11.168Z,98038.98
2023-01-19T23:42:13.812Z,98036.94
2023-01-19T23:44:17.625Z,98039.41
2023-01-19T23:46:21.306Z,98037.79
2023-01-19T23:48:23.871Z,98042.39
2023-01-19T23:50:26.725Z,98043.54
2023-01-19T23:52:29.276Z,98045.80
2023-01-19T23:54:31.840Z,98047.10
2023-01-19T23:56:37.348Z,98043.49
2023-01-19T23:58:40.679Z,98043.78
